Hambleton, United Kingdom
Current Conditions -  °F | °C
As of 7:50 PM on Monday 26 Jan 2015 (Local Time) from EGXU Reporting Station
Clear Clear  
Wind Chill: 31°   Ceiling: Unl
Heat Index: 37°   Visibility: 6mi
Dew Point: 32°   Wind: 9mph
Humidity: 81%   Direction: 280°W
Pressure: 30.27"   Gusts: NA
Location:  53.77°N, 1.17°W
Report Text: EGXU 261950Z AUTO 28008KT 9999 // NCD 03/M00 Q1025
Loading
Personal Weather Stations






























Interactive Weather Map New forecast layout! Learn more

10-Day Weather Forecast

Advertisements
Track Severe Weather on mobile